Rechercher aéroport 
image banner adimage banner adimage banner ad
image banner ad

17CA - Doctors Medical Center

Situé à San Pablo, United States

ICAO - 17CA, IATA -

Données fournies par Airmate  

Information générale

Coordonnées: N37°47'53" W121°14'50"
Élévation : 23 feet MSL.
Variation magnétique : 16° East
Voir autres Aéroports à California

Données opérationnelles

Special qualification required
Heure actuelle UTC:
Heure actuelle locale:
Météo à : KSCK - Stockton Metropolitan ( 11 km )
METAR: KSCK 270455Z AUTO 34008KT 10SM CLR 24/09 A2990 RMK AO2 SLP125 T02390089
TAF: KSCK 262331Z 2700/2724 31011KT P6SM SCT150 FM270500 33008KT P6SM VCSH OVC150 FM271200 34004KT P6SM BKN150 FM271800 33005KT P6SM SCT200
Voir NOTAMs / SUP AIP / TFR affectant cet aéroport [VIEW]
Fréquences de communication: [VIEW]

Pistes:

Coordonnées de l'aéroport

Adresse: San Pablo United States

Vue satellite de 17CA